Time;durP1;ratioP1;P1;durP2;ratioP2;P2;SDS_P1;SDS_P2;PMS_P1;PMS_P2;Temp;Humidity;BMP_temperature;BMP_pressure;BME280_temperature;BME280_humidity;BME280_pressure;Samples;Min_cycle;Max_cycle;Signal;HPM_P1;HPM_P2
2022/05/21 00:01:57;;;;;;;43.70;11.90;;;28.60;82.70;;;;;;5095014;28;20047;-59
2022/05/21 00:04:23;;;;;;;57.88;12.32;;;28.50;82.80;;;;;;5083896;28;20020;-59
2022/05/21 00:06:50;;;;;;;48.63;11.00;;;28.50;82.60;;;;;;5082918;28;20241;-63
2022/05/21 00:09:18;;;;;;;50.15;12.18;;;28.40;83.10;;;;;;5084117;28;20122;-56
2022/05/21 00:11:48;;;;;;;50.03;11.40;;;28.40;83.10;;;;;;5084301;28;20020;-55
2022/05/21 00:14:15;;;;;;;49.40;11.30;;;28.40;83.10;;;;;;5088687;28;20040;-59
2022/05/21 00:16:41;;;;;;;51.17;11.65;;;28.30;82.70;;;;;;5097761;28;20086;-59
2022/05/21 00:19:08;;;;;;;54.13;12.43;;;28.30;82.60;;;;;;5104269;28;20057;-59
2022/05/21 00:21:35;;;;;;;46.17;12.88;;;28.30;82.60;;;;;;5104602;28;20016;-59
2022/05/21 00:24:02;;;;;;;46.33;11.73;;;28.30;82.30;;;;;;5100496;28;20325;-57
2022/05/21 00:26:28;;;;;;;43.70;11.07;;;28.30;81.40;;;;;;5095563;28;20061;-58
2022/05/21 00:28:55;;;;;;;49.80;12.63;;;28.30;80.50;;;;;;5103650;28;20024;-58
2022/05/21 00:31:22;;;;;;;49.25;12.60;;;28.30;80.70;;;;;;5104414;28;20043;-59
2022/05/21 00:33:49;;;;;;;45.75;11.30;;;28.30;80.70;;;;;;5101826;28;20031;-58
2022/05/21 00:36:26;;;;;;;56.92;11.90;;;28.30;81.00;;;;;;5089617;28;20020;-59
2022/05/21 00:38:53;;;;;;;55.35;12.63;;;28.30;80.90;;;;;;5094119;28;20019;-59
2022/05/21 00:41:20;;;;;;;51.88;11.50;;;28.30;81.00;;;;;;5093587;28;20016;-62
2022/05/21 00:43:57;;;;;;;58.45;12.55;;;28.30;81.00;;;;;;5092019;28;20031;-60
2022/05/21 00:46:37;;;;;;;49.42;11.82;;;28.30;80.70;;;;;;5093705;28;20013;-61
2022/05/21 00:49:27;;;;;;;50.03;12.07;;;28.30;80.90;;;;;;5097590;28;20027;-60
2022/05/21 00:52:03;;;;;;;55.70;12.32;;;28.40;80.40;;;;;;5102061;28;20020;-61
2022/05/21 00:54:37;;;;;;;43.70;11.50;;;28.40;80.20;;;;;;5100202;28;20024;-60
2022/05/21 00:57:33;;;;;;;49.00;12.07;;;28.40;80.10;;;;;;5100470;28;20269;-59
2022/05/21 01:00:10;;;;;;;41.60;11.02;;;28.40;80.30;;;;;;5095229;28;20040;-59
2022/05/21 01:02:47;;;;;;;42.58;11.57;;;28.30;80.40;;;;;;5091929;28;20399;-59
2022/05/21 01:05:16;;;;;;;45.03;11.95;;;28.20;80.60;;;;;;5083452;28;20017;-59
2022/05/21 01:07:52;;;;;;;54.55;12.20;;;28.10;80.90;;;;;;5083466;28;20035;-58
2022/05/21 01:10:22;;;;;;;47.42;10.80;;;28.10;81.30;;;;;;5083605;28;20320;-60
2022/05/21 01:12:51;;;;;;;46.30;11.50;;;28.00;81.90;;;;;;5083367;28;20023;-60
2022/05/21 01:15:33;;;;;;;37.38;10.20;;;27.80;81.20;;;;;;5087046;28;20020;-56
2022/05/21 01:18:06;;;;;;;50.83;11.13;;;27.80;81.40;;;;;;5094664;28;20378;-58
2022/05/21 01:20:47;;;;;;;43.97;11.38;;;27.80;81.70;;;;;;5095184;28;20019;-59
2022/05/21 01:23:16;;;;;;;46.08;11.52;;;27.80;82.00;;;;;;5102778;28;20051;-59
2022/05/21 01:25:45;;;;;;;47.58;11.45;;;27.70;81.60;;;;;;5105009;28;20109;-60
2022/05/21 01:28:14;;;;;;;48.08;11.77;;;27.70;81.60;;;;;;5106756;28;20224;-60
2022/05/21 01:30:48;;;;;;;48.47;11.43;;;27.70;81.90;;;;;;5107265;28;20012;-59
2022/05/21 01:33:28;;;;;;;42.85;11.45;;;27.70;81.90;;;;;;5107407;28;20020;-59
2022/05/21 01:35:57;;;;;;;42.65;10.73;;;27.70;81.30;;;;;;5107544;28;20035;-60
2022/05/21 01:38:26;;;;;;;48.22;10.60;;;27.70;81.60;;;;;;5107267;28;20020;-60
2022/05/21 01:40:53;;;;;;;41.50;11.15;;;27.80;81.20;;;;;;5106095;28;20201;-60
2022/05/21 01:46:05;;;;;;;38.55;9.98;;;27.70;80.70;;;;;;5106671;28;20054;-59
2022/05/21 01:48:37;;;;;;;44.28;11.20;;;27.70;80.60;;;;;;5106847;28;20028;-57
2022/05/21 01:51:06;;;;;;;50.50;11.35;;;27.70;80.80;;;;;;5100871;28;20039;-54
2022/05/21 01:53:35;;;;;;;50.65;11.38;;;27.80;80.80;;;;;;5090575;28;20024;-55
2022/05/21 01:56:02;;;;;;;45.25;10.73;;;27.90;80.70;;;;;;5088141;28;20197;-58
2022/05/21 01:58:29;;;;;;;48.55;10.48;;;27.90;80.30;;;;;;5098321;28;20028;-54
2022/05/21 02:00:57;;;;;;;51.35;11.10;;;27.90;80.00;;;;;;5106569;28;20020;-59
2022/05/21 02:03:28;;;;;;;48.90;11.35;;;28.00;80.50;;;;;;5105204;28;20051;-55
2022/05/21 02:05:55;;;;;;;45.20;10.60;;;28.00;80.50;;;;;;5106771;28;20346;-54
2022/05/21 02:08:25;;;;;;;42.25;10.60;;;28.00;80.20;;;;;;5106746;28;20301;-53
2022/05/21 02:10:52;;;;;;;46.47;10.07;;;28.00;80.40;;;;;;5106427;28;20087;-57
2022/05/21 02:13:25;;;;;;;37.65;10.30;;;28.00;80.40;;;;;;5105344;28;20016;-54
2022/05/21 02:15:52;;;;;;;46.47;10.48;;;28.10;80.50;;;;;;5106521;28;20324;-55
2022/05/21 02:18:20;;;;;;;44.40;10.07;;;28.00;80.30;;;;;;5106384;28;20020;-61
2022/05/21 02:20:53;;;;;;;40.22;10.38;;;28.10;80.40;;;;;;5106537;28;20028;-55
2022/05/21 02:23:21;;;;;;;39.00;9.48;;;28.10;80.40;;;;;;5103124;28;20320;-55
2022/05/21 02:25:48;;;;;;;41.05;10.43;;;28.00;80.50;;;;;;5106334;28;20093;-57
2022/05/21 02:28:15;;;;;;;40.10;10.13;;;28.00;80.50;;;;;;5104873;28;20053;-55
2022/05/21 02:30:43;;;;;;;42.55;10.48;;;28.00;80.30;;;;;;5105957;28;20016;-56
2022/05/21 02:33:09;;;;;;;38.65;10.10;;;28.00;80.50;;;;;;5106366;28;20012;-54
2022/05/21 02:35:36;;;;;;;46.72;9.57;;;28.00;80.40;;;;;;5102936;28;20025;-57
2022/05/21 02:40:48;;;;;;;41.25;9.77;;;27.90;80.40;;;;;;5094859;28;20200;-56
2022/05/21 02:43:15;;;;;;;40.50;9.32;;;27.90;80.10;;;;;;5095809;28;20058;-56
2022/05/21 02:45:48;;;;;;;34.85;9.68;;;27.90;80.10;;;;;;5096672;28;20021;-57
2022/05/21 02:48:15;;;;;;;38.60;10.38;;;27.90;80.00;;;;;;5097326;28;20016;-55
2022/05/21 02:50:42;;;;;;;50.33;10.40;;;27.90;79.90;;;;;;5095366;28;20087;-56
2022/05/21 02:53:16;;;;;;;44.88;10.45;;;27.90;79.90;;;;;;5093338;28;20088;-53
2022/05/21 02:55:46;;;;;;;44.28;9.98;;;27.80;79.90;;;;;;5093938;28;20081;-55
2022/05/21 02:58:13;;;;;;;33.08;9.63;;;27.80;79.80;;;;;;5089851;28;20024;-57
2022/05/21 03:00:43;;;;;;;36.72;9.40;;;27.80;79.60;;;;;;5094605;28;20028;-54
2022/05/21 03:03:10;;;;;;;39.13;10.48;;;27.80;79.40;;;;;;5094794;28;20082;-55
2022/05/21 03:05:37;;;;;;;36.45;8.75;;;27.80;79.10;;;;;;5090780;28;20039;-56
2022/05/21 03:10:20;;;;;;;37.90;10.00;;;27.80;79.10;;;;;;5095016;28;20040;-56
2022/05/21 03:10:53;;;;;;;34.17;9.02;;;27.80;78.80;;;;;;5095995;28;20269;-55
2022/05/21 03:13:20;;;;;;;38.80;9.13;;;27.80;78.80;;;;;;5103371;28;20020;-58
2022/05/21 03:15:48;;;;;;;41.45;9.57;;;27.70;78.60;;;;;;5106313;28;20027;-54
2022/05/21 03:18:15;;;;;;;37.95;8.65;;;27.70;78.60;;;;;;5105737;28;20061;-52
2022/05/21 03:20:42;;;;;;;36.35;9.38;;;27.70;78.50;;;;;;5105746;28;20019;-53
2022/05/21 03:23:10;;;;;;;35.50;8.68;;;27.70;78.60;;;;;;5105636;28;20020;-53
2022/05/21 03:25:38;;;;;;;43.60;13.07;;;27.70;78.40;;;;;;5105522;28;20122;-52
2022/05/21 03:28:05;;;;;;;37.58;10.18;;;27.70;78.50;;;;;;5105308;28;20097;-54
2022/05/21 03:30:33;;;;;;;39.42;10.85;;;27.70;78.60;;;;;;5105472;28;20016;-52
2022/05/21 03:33:00;;;;;;;57.20;27.63;;;27.60;78.70;;;;;;5105429;28;20027;-55
2022/05/21 03:35:27;;;;;;;60.05;33.90;;;27.60;78.80;;;;;;5105375;28;20189;-55
2022/05/21 03:37:55;;;;;;;75.60;46.97;;;27.60;78.70;;;;;;5105784;28;20023;-59
2022/05/21 03:40:25;;;;;;;57.92;32.90;;;27.60;78.50;;;;;;5096016;28;20024;-53
2022/05/21 03:42:52;;;;;;;56.45;26.95;;;27.60;78.60;;;;;;5084637;28;20028;-53
2022/05/21 03:45:23;;;;;;;48.00;22.70;;;27.60;78.10;;;;;;5084781;28;20028;-55
2022/05/21 03:47:52;;;;;;;46.90;21.20;;;27.60;78.10;;;;;;5084793;28;20051;-56
2022/05/21 03:50:24;;;;;;;46.92;17.95;;;27.60;77.80;;;;;;5083268;28;20040;-57
2022/05/21 03:52:51;;;;;;;38.15;14.52;;;27.50;77.20;;;;;;5084743;28;20023;-52
2022/05/21 03:55:19;;;;;;;37.38;13.88;;;27.50;77.20;;;;;;5084509;28;20025;-56
2022/05/21 03:57:45;;;;;;;40.05;12.27;;;27.50;76.60;;;;;;5084445;28;20066;-53
2022/05/21 04:00:16;;;;;;;47.67;13.18;;;27.50;76.60;;;;;;5084063;28;20051;-59
2022/05/21 04:02:42;;;;;;;34.45;10.98;;;27.50;76.40;;;;;;5084314;28;20059;-54
2022/05/21 04:05:10;;;;;;;40.45;10.65;;;27.50;76.40;;;;;;5084176;28;20062;-54
2022/05/21 04:07:39;;;;;;;33.83;11.50;;;27.50;75.80;;;;;;5084115;28;20066;-55
2022/05/21 04:10:08;;;;;;;33.58;9.30;;;27.40;76.00;;;;;;5084197;28;20020;-55
2022/05/21 04:12:35;;;;;;;38.90;10.30;;;27.40;75.90;;;;;;5084072;28;20020;-62
2022/05/21 04:15:01;;;;;;;36.85;9.32;;;27.40;75.90;;;;;;5084212;28;20324;-54
2022/05/21 04:17:28;;;;;;;34.72;8.95;;;27.50;76.00;;;;;;5083987;28;20077;-53
2022/05/21 04:19:55;;;;;;;39.13;10.02;;;27.40;75.70;;;;;;5084175;28;20126;-54
2022/05/21 04:22:21;;;;;;;32.38;8.80;;;27.40;75.80;;;;;;5083909;28;20027;-56
2022/05/21 04:24:54;;;;;;;34.13;8.45;;;27.40;76.00;;;;;;5082679;28;20255;-56
2022/05/21 04:27:20;;;;;;;;;;;27.40;75.80;;;;;;5083169;28;20147;-54
2022/05/21 04:29:46;;;;;;;28.80;8.50;;;27.40;75.80;;;;;;5083804;28;19904;-53
2022/05/21 04:32:15;;;;;;;34.13;9.13;;;27.30;75.60;;;;;;5083121;28;20221;-56
2022/05/21 04:34:45;;;;;;;30.23;8.25;;;27.30;75.50;;;;;;5083977;28;20119;-55
2022/05/21 04:37:11;;;;;;;34.17;8.45;;;27.30;75.70;;;;;;5083840;28;20017;-57
2022/05/21 04:39:38;;;;;;;37.70;8.80;;;27.30;75.70;;;;;;5084305;28;20259;-53
2022/05/21 04:42:05;;;;;;;33.15;8.13;;;27.30;75.40;;;;;;5083949;28;20248;-56
2022/05/21 04:44:34;;;;;;;28.73;7.85;;;27.30;75.40;;;;;;5084315;28;20021;-56
2022/05/21 04:47:02;;;;;;;31.23;7.72;;;27.30;75.00;;;;;;5083916;28;20229;-55
2022/05/21 04:49:40;;;;;;;;;;;;;;;;;;;;;
2022/05/21 04:52:07;;;;;;;28.73;7.25;;;27.30;74.80;;;;;;5083832;28;20040;-56
2022/05/21 04:54:37;;;;;;;29.92;7.72;;;27.20;75.00;;;;;;5084162;28;20031;-56
2022/05/21 04:57:04;;;;;;;32.90;7.57;;;27.20;74.10;;;;;;5083512;28;20028;-54
2022/05/21 04:59:31;;;;;;;30.67;7.95;;;27.30;73.90;;;;;;5084638;28;20291;-55
2022/05/21 05:02:00;;;;;;;29.73;8.13;;;27.20;73.80;;;;;;5087432;28;20024;-59
2022/05/21 05:04:27;;;;;;;29.67;7.40;;;27.20;73.90;;;;;;5086572;28;20253;-53
2022/05/21 05:06:53;;;;;;;32.35;7.60;;;27.20;73.70;;;;;;5087540;28;20024;-56
2022/05/21 05:09:22;;;;;;;30.52;7.53;;;27.20;73.60;;;;;;5087951;28;20031;-58
2022/05/21 05:11:53;;;;;;;28.92;8.07;;;27.20;73.10;;;;;;5087277;28;20366;-57
2022/05/21 05:14:19;;;;;;;35.85;8.30;;;27.20;72.90;;;;;;5086460;28;20273;-55
2022/05/21 05:16:46;;;;;;;32.40;7.28;;;27.20;73.00;;;;;;5087666;28;20220;-55
2022/05/21 05:19:13;;;;;;;29.92;7.13;;;27.20;72.80;;;;;;5087563;28;20012;-55
2022/05/21 05:21:40;;;;;;;33.15;7.78;;;27.20;73.00;;;;;;5087323;28;20028;-54
2022/05/21 05:24:06;;;;;;;30.52;6.97;;;27.10;72.70;;;;;;5086971;28;20084;-54
2022/05/21 05:26:33;;;;;;;27.30;7.22;;;27.20;72.70;;;;;;5086995;28;20013;-52
2022/05/21 05:29:00;;;;;;;28.20;6.93;;;27.10;72.70;;;;;;5087348;28;20028;-55
2022/05/21 05:31:26;;;;;;;31.58;7.63;;;27.20;72.80;;;;;;5086979;28;20263;-55
2022/05/21 05:33:54;;;;;;;33.85;7.40;;;27.10;72.70;;;;;;5087138;28;20201;-53
2022/05/21 05:36:20;;;;;;;29.35;7.00;;;27.10;72.50;;;;;;5086987;28;20023;-57
2022/05/21 05:38:47;;;;;;;26.75;6.82;;;27.10;72.40;;;;;;5087212;28;20020;-56
2022/05/21 05:41:14;;;;;;;33.72;7.65;;;27.10;72.40;;;;;;5086640;28;20024;-52
2022/05/21 05:43:41;;;;;;;31.33;6.85;;;27.10;72.20;;;;;;5086958;28;20074;-52
2022/05/21 05:46:07;;;;;;;29.60;7.00;;;27.10;72.40;;;;;;5086818;28;20368;-56
2022/05/21 05:48:34;;;;;;;33.25;7.45;;;27.10;72.10;;;;;;5086748;28;20220;-50
2022/05/21 05:51:03;;;;;;;28.75;7.20;;;27.10;72.00;;;;;;5086665;28;20021;-54
2022/05/21 05:53:29;;;;;;;31.00;7.95;;;27.10;72.10;;;;;;5086794;28;20032;-55
2022/05/21 05:55:56;;;;;;;30.45;7.45;;;27.10;72.20;;;;;;5086506;28;20020;-54
2022/05/21 06:01:08;;;;;;;32.67;7.90;;;27.10;72.30;;;;;;5086485;28;20066;-54
2022/05/21 06:03:36;;;;;;;28.75;7.35;;;27.10;72.20;;;;;;5086191;28;20104;-60
2022/05/21 06:06:04;;;;;;;30.63;7.53;;;27.10;72.00;;;;;;5086301;28;20024;-53
2022/05/21 06:08:31;;;;;;;31.25;7.40;;;27.10;71.90;;;;;;5086379;28;20024;-54
2022/05/21 06:10:59;;;;;;;27.08;7.28;;;27.00;71.50;;;;;;5085447;28;20033;-55
2022/05/21 06:13:25;;;;;;;35.40;7.95;;;27.10;71.60;;;;;;5086089;28;20020;-55
2022/05/21 06:15:52;;;;;;;30.45;8.40;;;27.10;71.70;;;;;;5086159;28;20205;-55
2022/05/21 06:18:22;;;;;;;32.90;7.75;;;27.00;71.60;;;;;;5086290;28;20379;-53
2022/05/21 06:20:50;;;;;;;33.53;8.52;;;27.00;71.80;;;;;;5086049;28;20027;-53
2022/05/21 06:23:19;;;;;;;27.20;7.60;;;27.00;71.90;;;;;;5086012;28;20029;-54
2022/05/21 06:25:46;;;;;;;29.90;7.53;;;27.00;71.90;;;;;;5086023;28;20031;-50
2022/05/21 06:28:13;;;;;;;38.17;9.07;;;27.00;71.80;;;;;;5086049;28;20213;-53
2022/05/21 06:30:42;;;;;;;31.30;9.02;;;27.00;71.80;;;;;;5085693;28;20356;-53
2022/05/21 06:33:12;;;;;;;28.63;8.43;;;27.00;72.00;;;;;;5085948;28;20020;-55
2022/05/21 06:35:40;;;;;;;31.55;8.27;;;27.00;72.10;;;;;;5085936;28;20027;-53
2022/05/21 06:38:06;;;;;;;39.80;8.80;;;27.00;71.90;;;;;;5085725;28;20275;-55
2022/05/21 06:40:33;;;;;;;29.05;7.80;;;27.00;72.00;;;;;;5085819;28;20370;-55
2022/05/21 06:43:00;;;;;;;26.20;7.75;;;27.00;72.30;;;;;;5085541;28;20312;-55
2022/05/21 06:45:32;;;;;;;29.08;7.82;;;27.00;71.90;;;;;;5085475;28;20028;-55
2022/05/21 06:48:07;;;;;;;32.40;8.03;;;26.90;71.70;;;;;;5085775;28;20035;-55
2022/05/21 06:50:35;;;;;;;31.77;8.30;;;26.90;71.80;;;;;;5085471;28;20024;-54
2022/05/21 06:53:01;;;;;;;37.00;8.98;;;26.90;71.50;;;;;;5085541;28;20038;-56
2022/05/21 06:55:28;;;;;;;32.45;7.97;;;26.90;71.70;;;;;;5085377;28;20028;-53
2022/05/21 06:57:54;;;;;;;34.45;8.43;;;26.90;71.70;;;;;;5085437;28;20020;-54
2022/05/21 07:00:22;;;;;;;26.20;7.55;;;26.90;71.40;;;;;;5085229;28;20031;-55
2022/05/21 07:02:50;;;;;;;34.17;7.72;;;26.90;71.40;;;;;;5085164;28;20044;-55
2022/05/21 07:08:05;;;;;;;33.53;7.38;;;26.90;71.50;;;;;;5085319;28;20247;-53
2022/05/21 07:10:32;;;;;;;33.38;7.63;;;26.90;71.50;;;;;;5085096;28;20021;-57
2022/05/21 07:12:59;;;;;;;30.90;7.70;;;26.80;71.50;;;;;;5085012;28;20016;-52
2022/05/21 07:15:26;;;;;;;28.77;8.35;;;26.80;72.00;;;;;;5085078;28;20024;-52
2022/05/21 07:18:00;;;;;;;23.98;6.65;;;26.80;72.20;;;;;;5085002;28;20239;-53
2022/05/21 07:20:28;;;;;;;34.80;8.43;;;26.80;72.60;;;;;;5084862;28;20074;-52
2022/05/21 07:22:54;;;;;;;32.40;7.53;;;26.80;72.80;;;;;;5084758;28;20060;-53
2022/05/21 07:25:24;;;;;;;30.77;8.10;;;26.80;73.10;;;;;;5084614;28;20213;-53
2022/05/21 07:27:52;;;;;;;32.67;7.88;;;26.80;73.30;;;;;;5084633;28;20020;-55
2022/05/21 07:30:19;;;;;;;29.02;8.00;;;26.80;73.30;;;;;;5084690;28;20028;-53
2022/05/21 07:32:48;;;;;;;29.10;7.40;;;26.80;73.80;;;;;;5084782;28;20323;-54
2022/05/21 07:35:16;;;;;;;33.22;7.95;;;26.80;74.10;;;;;;5084562;28;20036;-53
2022/05/21 07:37:43;;;;;;;26.80;7.22;;;26.70;74.50;;;;;;5084576;28;20024;-55
2022/05/21 07:40:12;;;;;;;24.35;6.68;;;26.70;75.00;;;;;;5084411;28;20023;-52
2022/05/21 07:42:38;;;;;;;30.75;7.75;;;26.70;75.00;;;;;;5084620;28;20032;-54
2022/05/21 07:45:07;;;;;;;29.95;7.30;;;26.70;75.00;;;;;;5084486;28;20083;-53
2022/05/21 07:47:34;;;;;;;33.47;7.55;;;26.70;75.30;;;;;;5084141;28;20039;-57
2022/05/21 07:50:00;;;;;;;35.20;7.22;;;26.70;75.50;;;;;;5084317;28;20059;-54
2022/05/21 07:52:28;;;;;;;31.25;7.57;;;26.70;75.70;;;;;;5084442;28;20331;-54
2022/05/21 07:54:56;;;;;;;30.73;7.25;;;26.70;75.80;;;;;;5084129;28;20028;-53
2022/05/21 07:57:23;;;;;;;26.90;6.78;;;26.70;76.00;;;;;;5084238;28;20089;-54
2022/05/21 07:59:50;;;;;;;32.58;7.50;;;26.70;76.00;;;;;;5084184;28;20025;-56
2022/05/21 08:02:19;;;;;;;27.20;6.57;;;26.60;76.20;;;;;;5083860;28;20051;-54
2022/05/21 08:04:47;;;;;;;23.52;6.50;;;26.60;76.30;;;;;;5084319;28;20032;-56
2022/05/21 08:07:15;;;;;;;33.38;7.25;;;26.60;76.30;;;;;;5083978;28;20317;-58
2022/05/21 08:09:42;;;;;;;32.35;7.55;;;26.60;75.90;;;;;;5083912;28;20036;-54
2022/05/21 08:12:12;;;;;;;27.63;7.45;;;26.60;75.50;;;;;;5084026;28;20020;-53
2022/05/21 08:14:39;;;;;;;28.15;8.13;;;26.60;75.40;;;;;;5084059;28;20028;-55
2022/05/21 08:17:05;;;;;;;28.88;7.80;;;26.60;75.20;;;;;;5083850;28;20095;-54
2022/05/21 08:19:32;;;;;;;31.48;7.20;;;26.60;75.20;;;;;;5084431;28;20021;-52
2022/05/21 08:26:56;;;;;;;36.83;7.85;;;26.50;75.00;;;;;;5083933;28;20050;-53
2022/05/21 08:27:30;;;;;;;27.70;7.35;;;26.60;74.40;;;;;;5083656;28;20093;-53
2022/05/21 08:29:57;;;;;;;30.98;7.13;;;26.50;74.00;;;;;;5083858;28;20039;-53
2022/05/21 08:32:24;;;;;;;32.35;7.40;;;26.50;73.70;;;;;;5083844;28;20102;-53
2022/05/21 08:34:52;;;;;;;29.00;6.75;;;26.50;73.60;;;;;;5083215;28;20036;-52
2022/05/21 08:37:20;;;;;;;30.33;7.22;;;26.50;73.70;;;;;;5083715;28;20063;-54
2022/05/21 08:39:48;;;;;;;28.40;6.70;;;26.50;73.70;;;;;;5083731;28;20336;-53
2022/05/21 08:42:43;;;;;;;30.65;7.60;;;26.50;73.40;;;;;;5083518;28;20016;-53
2022/05/21 08:45:41;;;;;;;27.42;7.10;;;26.50;73.30;;;;;;5083665;28;20035;-53
2022/05/21 08:48:10;;;;;;;28.48;6.97;;;26.50;73.00;;;;;;5083789;28;20024;-58
2022/05/21 08:50:44;;;;;;;36.97;7.78;;;26.50;73.00;;;;;;5083576;28;20082;-55
2022/05/21 08:53:17;;;;;;;29.63;7.75;;;26.50;72.80;;;;;;5083710;28;20020;-54
2022/05/21 08:55:46;;;;;;;26.58;6.97;;;26.50;72.70;;;;;;5083605;28;20020;-55
2022/05/21 08:58:29;;;;;;;30.63;7.88;;;26.50;72.60;;;;;;5083742;28;20080;-57
2022/05/21 09:00:56;;;;;;;26.40;7.07;;;26.50;72.50;;;;;;5083582;28;20318;-55
2022/05/21 09:03:25;;;;;;;32.90;7.82;;;26.50;72.40;;;;;;5083549;28;20055;-55
2022/05/21 09:06:19;;;;;;;34.30;8.13;;;26.50;72.30;;;;;;5083660;28;20048;-53
2022/05/21 09:09:04;;;;;;;29.50;7.18;;;26.40;72.00;;;;;;5083643;28;20048;-57
2022/05/21 09:11:43;;;;;;;31.98;7.45;;;26.40;72.10;;;;;;5083489;28;20085;-53
2022/05/21 09:14:46;;;;;;;23.77;6.90;;;26.40;72.20;;;;;;5083444;28;20017;-53
2022/05/21 09:17:20;;;;;;;33.67;7.32;;;26.40;72.10;;;;;;5083280;28;20033;-54
2022/05/21 09:19:52;;;;;;;28.10;7.60;;;26.40;72.40;;;;;;5083369;28;20038;-55
2022/05/21 09:22:21;;;;;;;32.97;7.55;;;26.40;72.50;;;;;;5083156;28;20024;-59
2022/05/21 09:24:55;;;;;;;33.72;8.05;;;26.40;72.60;;;;;;5083205;28;20220;-54
2022/05/21 09:27:35;;;;;;;33.72;8.52;;;26.40;72.70;;;;;;5083225;28;20054;-55
2022/05/21 09:30:22;;;;;;;31.40;9.48;;;26.40;72.80;;;;;;5083317;28;20377;-54
2022/05/21 09:32:52;;;;;;;31.48;8.80;;;26.40;72.70;;;;;;5083109;28;20024;-56
2022/05/21 09:35:23;;;;;;;28.63;7.80;;;26.40;72.60;;;;;;5083236;28;20020;-55
2022/05/21 09:37:50;;;;;;;29.80;7.63;;;26.40;72.60;;;;;;5083274;28;20073;-53
2022/05/21 09:40:29;;;;;;;26.73;7.82;;;26.40;72.50;;;;;;5083383;28;20025;-55
2022/05/21 09:45:42;;;;;;;31.15;7.72;;;26.40;72.70;;;;;;5083878;28;20062;-57
2022/05/21 09:48:08;;;;;;;33.75;7.97;;;26.30;72.80;;;;;;5086774;28;20217;-53
2022/05/21 09:50:49;;;;;;;33.20;7.63;;;26.30;72.60;;;;;;5086671;28;20244;-53
2022/05/21 09:53:38;;;;;;;33.10;7.72;;;26.30;72.60;;;;;;5086774;28;20020;-54
2022/05/21 09:56:08;;;;;;;35.70;7.53;;;26.30;72.70;;;;;;5086431;28;20020;-53
2022/05/21 09:58:40;;;;;;;32.38;8.05;;;26.30;72.90;;;;;;5086518;28;20028;-54
2022/05/21 10:01:09;;;;;;;26.63;7.40;;;26.30;73.10;;;;;;5086382;28;20031;-55
2022/05/21 10:03:54;;;;;;;28.90;7.32;;;26.30;73.20;;;;;;5086522;28;20052;-56
2022/05/21 10:06:33;;;;;;;28.08;7.05;;;26.30;73.10;;;;;;5086368;28;20024;-55
2022/05/21 10:12:16;;;;;;;40.05;7.88;;;26.30;73.10;;;;;;5086249;28;20085;-54
2022/05/21 10:15:08;;;;;;;29.63;7.72;;;26.30;73.20;;;;;;5086178;28;20024;-55
2022/05/21 10:17:59;;;;;;;29.88;6.95;;;26.30;73.20;;;;;;5086252;28;20063;-57
2022/05/21 10:20:44;;;;;;;29.98;7.65;;;26.30;73.30;;;;;;5086001;28;20028;-54
2022/05/21 10:23:35;;;;;;;36.45;8.23;;;26.30;73.40;;;;;;5086090;28;20023;-54
2022/05/21 10:26:29;;;;;;;35.50;7.38;;;26.30;73.50;;;;;;5086007;28;20032;-57
2022/05/21 10:29:11;;;;;;;25.90;7.20;;;26.30;73.60;;;;;;5086389;28;20328;-52
2022/05/21 10:32:05;;;;;;;34.45;7.03;;;26.30;73.50;;;;;;5085773;28;20051;-56
2022/05/21 10:34:50;;;;;;;28.60;7.40;;;26.30;73.60;;;;;;5086297;28;20024;-52
2022/05/21 10:37:19;;;;;;;26.20;6.78;;;26.30;73.70;;;;;;5085857;28;20403;-55
2022/05/21 10:40:29;;;;;;;24.17;7.40;;;26.30;73.90;;;;;;5085938;28;20032;-56
2022/05/21 10:43:08;;;;;;;29.83;7.47;;;26.30;73.80;;;;;;5085845;28;20044;-56
2022/05/21 10:46:01;;;;;;;28.30;7.47;;;26.30;73.90;;;;;;5085549;28;20242;-53
2022/05/21 10:48:39;;;;;;;;;;;26.30;73.90;;;;;;5086420;28;20020;-54
2022/05/21 10:51:30;;;;;;;28.70;7.82;;;26.30;74.10;;;;;;5085613;28;20149;-55
2022/05/21 10:54:21;;;;;;;28.80;8.25;;;26.30;74.40;;;;;;5085667;28;20212;-54
2022/05/21 10:56:59;;;;;;;32.83;9.82;;;26.30;74.50;;;;;;5085376;28;20020;-54
2022/05/21 10:59:49;;;;;;;31.58;9.40;;;26.30;74.60;;;;;;5085088;28;20016;-53
2022/05/21 11:02:44;;;;;;;35.95;9.63;;;26.40;74.50;;;;;;5085168;28;20047;-55
2022/05/21 11:05:33;;;;;;;30.50;9.43;;;26.30;74.50;;;;;;5085193;28;20047;-54
2022/05/21 11:08:19;;;;;;;28.45;9.25;;;26.40;74.60;;;;;;5085297;28;20189;-49
2022/05/21 11:11:26;;;;;;;31.95;9.18;;;26.50;74.80;;;;;;5085052;28;20020;-49
2022/05/21 11:14:07;;;;;;;27.33;7.63;;;26.60;75.00;;;;;;5036769;28;20048;-54
2022/05/21 11:16:58;;;;;;;26.98;7.72;;;26.70;75.10;;;;;;5085110;28;20022;-52
2022/05/21 11:19:43;;;;;;;29.83;7.70;;;26.80;75.00;;;;;;5085447;28;20293;-52
2022/05/21 11:22:17;;;;;;;25.33;6.97;;;26.90;75.00;;;;;;5084914;28;20062;-50
2022/05/21 11:24:52;;;;;;;32.35;8.10;;;26.90;75.00;;;;;;5084779;28;20099;-58
2022/05/21 11:27:25;;;;;;;31.55;7.38;;;26.90;75.20;;;;;;5084775;28;20193;-48
2022/05/21 11:29:57;;;;;;;33.47;7.80;;;26.90;75.30;;;;;;5084799;28;20261;-53
2022/05/21 11:38:24;;;;;;;22.85;6.80;;;27.20;75.60;;;;;;5084768;28;20063;-60
2022/05/21 11:47:18;;;;;;;23.85;6.78;;;27.30;76.30;;;;;;5084626;28;20092;-50
2022/05/21 11:50:08;;;;;;;24.27;6.93;;;27.20;76.70;;;;;;5056937;28;20070;-52
2022/05/21 11:52:35;;;;;;;26.55;7.13;;;27.20;76.80;;;;;;5084306;28;20020;-52
2022/05/21 11:55:16;;;;;;;22.33;6.57;;;27.20;77.00;;;;;;5084183;28;20106;-50
2022/05/21 11:57:51;;;;;;;27.35;6.95;;;27.20;77.10;;;;;;5083318;28;20038;-55
2022/05/21 12:00:18;;;;;;;23.60;6.93;;;27.20;76.90;;;;;;5084100;28;20089;-48
2022/05/21 12:02:53;;;;;;;26.08;7.03;;;27.20;77.00;;;;;;5084092;28;20083;-52
2022/05/21 12:08:20;;;;;;;22.83;6.95;;;27.20;77.00;;;;;;5084143;28;20304;-54
2022/05/21 12:11:12;;;;;;;32.67;7.97;;;27.30;77.00;;;;;;5083123;28;20024;-52
2022/05/21 12:13:41;;;;;;;21.83;7.60;;;27.30;77.10;;;;;;5077333;28;20051;-51
2022/05/21 12:16:20;;;;;;;28.13;8.05;;;27.30;77.20;;;;;;5083903;28;20020;-50
2022/05/21 12:19:02;;;;;;;28.95;7.75;;;27.30;77.40;;;;;;5084246;28;20050;-50
2022/05/21 12:21:29;;;;;;;28.17;8.32;;;27.30;77.40;;;;;;5083738;28;20024;-50
2022/05/21 12:23:58;;;;;;;27.33;7.95;;;27.30;77.30;;;;;;5083943;28;20101;-50
2022/05/21 12:26:31;;;;;;;29.98;8.98;;;27.40;77.40;;;;;;5084995;28;20248;-56
2022/05/21 12:29:16;;;;;;;;;;;27.40;77.40;;;;;;5084278;28;20032;-49
2022/05/21 12:31:44;;;;;;;25.42;7.18;;;27.40;77.30;;;;;;5083984;28;19904;-52
2022/05/21 12:34:21;;;;;;;25.48;7.20;;;27.40;77.40;;;;;;5083393;28;20032;-54
2022/05/21 12:37:15;;;;;;;29.88;7.60;;;27.40;77.40;;;;;;5084564;28;20021;-54
2022/05/21 12:39:45;;;;;;;27.35;7.90;;;27.50;77.40;;;;;;5084381;28;20317;-58
2022/05/21 12:42:27;;;;;;;24.63;7.18;;;27.50;77.50;;;;;;5083966;28;20051;-56
2022/05/21 12:44:54;;;;;;;24.98;7.38;;;27.50;77.60;;;;;;5082787;28;20254;-53
2022/05/21 12:47:30;;;;;;;28.85;6.90;;;27.60;77.70;;;;;;5083604;28;20062;-54
2022/05/21 12:49:58;;;;;;;24.83;7.32;;;27.60;77.80;;;;;;5082670;28;20043;-55
2022/05/21 12:52:30;;;;;;;22.73;6.78;;;27.60;77.90;;;;;;5083943;28;20013;-54
2022/05/21 12:55:20;;;;;;;28.00;7.82;;;27.70;77.90;;;;;;5083911;28;20028;-52
2022/05/21 12:57:47;;;;;;;22.45;6.68;;;27.70;78.00;;;;;;5084121;28;20028;-52
2022/05/21 13:00:16;;;;;;;26.17;7.30;;;27.70;78.10;;;;;;5083496;28;20028;-55
2022/05/21 13:02:47;;;;;;;31.20;7.55;;;27.70;78.20;;;;;;5083651;28;20041;-58
2022/05/21 13:05:36;;;;;;;29.60;7.63;;;27.80;78.40;;;;;;5084214;28;20099;-49
2022/05/21 13:08:06;;;;;;;27.27;7.13;;;27.80;78.40;;;;;;5082612;28;20099;-58
2022/05/21 13:10:35;;;;;;;25.50;6.70;;;27.80;78.50;;;;;;5083906;28;20009;-50
2022/05/21 13:13:10;;;;;;;27.30;7.15;;;27.80;78.40;;;;;;5083857;28;20039;-55
2022/05/21 13:15:44;;;;;;;21.50;6.63;;;27.80;78.50;;;;;;5083615;28;20079;-60
2022/05/21 13:18:33;;;;;;;26.17;6.65;;;27.80;78.40;;;;;;5082932;28;20021;-51
2022/05/21 13:21:20;;;;;;;26.42;6.97;;;27.80;78.40;;;;;;5085044;28;20021;-52
2022/05/21 13:24:08;;;;;;;26.30;7.50;;;27.90;78.50;;;;;;5087738;28;20032;-57
2022/05/21 13:26:42;;;;;;;26.73;7.10;;;27.90;78.40;;;;;;5087454;28;20309;-57
2022/05/21 13:29:26;;;;;;;23.15;6.82;;;27.90;78.40;;;;;;5087094;28;20028;-54
2022/05/21 13:31:54;;;;;;;25.27;6.57;;;28.00;78.40;;;;;;5087346;28;20016;-51
2022/05/21 13:34:35;;;;;;;23.42;6.97;;;28.00;78.40;;;;;;5087914;28;20024;-52
2022/05/21 13:37:04;;;;;;;31.02;7.05;;;28.00;78.40;;;;;;5086115;28;20012;-49